createdAt,value
2019-02-26T00:00:33.351Z,1028.08
2019-02-26T00:01:33.335Z,1028.21
2019-02-26T00:02:33.321Z,1028.11
2019-02-26T00:03:35.260Z,1028.13
2019-02-26T00:04:34.940Z,1028.11
2019-02-26T00:05:33.291Z,1028.17
2019-02-26T00:06:33.290Z,1028.22
2019-02-26T00:07:33.268Z,1028.21
2019-02-26T00:08:33.599Z,1028.25
2019-02-26T00:09:35.322Z,1028.18
2019-02-26T00:10:35.951Z,1028.16
2019-02-26T00:11:34.071Z,1028.03
2019-02-26T00:12:33.945Z,1028.04
2019-02-26T00:13:34.601Z,1027.96
2019-02-26T00:14:33.188Z,1027.91
2019-02-26T00:15:35.544Z,1027.90
2019-02-26T00:16:37.658Z,1028.04
2019-02-26T00:17:38.633Z,1027.96
2019-02-26T00:18:34.150Z,1027.90
2019-02-26T00:19:33.141Z,1027.85
2019-02-26T00:20:34.341Z,1027.75
2019-02-26T00:21:33.131Z,1027.71
2019-02-26T00:22:34.459Z,1027.68
2019-02-26T00:23:33.098Z,1027.72
2019-02-26T00:24:35.305Z,1027.76
2019-02-26T00:25:33.054Z,1027.79
2019-02-26T00:26:34.098Z,1027.88
2019-02-26T00:27:35.042Z,1027.89
2019-02-26T00:28:34.163Z,1027.87
2019-02-26T00:29:33.004Z,1027.88
2019-02-26T00:30:33.856Z,1027.83
2019-02-26T00:31:33.028Z,1027.61
2019-02-26T00:32:33.888Z,1027.66
2019-02-26T00:33:32.964Z,1027.76
2019-02-26T00:34:34.590Z,1027.83
2019-02-26T00:35:32.950Z,1027.74
2019-02-26T00:36:33.746Z,1027.73
2019-02-26T00:37:32.916Z,1027.83
2019-02-26T00:38:33.738Z,1027.67
2019-02-26T00:39:32.905Z,1027.66
2019-02-26T00:40:34.941Z,1027.79
2019-02-26T00:41:33.634Z,1027.80
2019-02-26T00:42:34.247Z,1027.79
2019-02-26T00:43:34.510Z,1027.83
2019-02-26T00:44:35.262Z,1027.94
2019-02-26T00:45:34.037Z,1027.86
2019-02-26T00:46:34.722Z,1027.95
2019-02-26T00:47:34.469Z,1027.89
2019-02-26T00:48:33.724Z,1027.92
2019-02-26T00:49:32.817Z,1027.94
2019-02-26T00:50:35.029Z,1027.93
2019-02-26T00:51:32.783Z,1027.97
2019-02-26T00:52:34.718Z,1027.92
2019-02-26T00:53:33.079Z,1027.94
2019-02-26T00:54:34.387Z,1027.98
2019-02-26T00:55:34.814Z,1028.02
2019-02-26T00:56:34.036Z,1027.95
2019-02-26T00:57:33.536Z,1027.99
2019-02-26T00:58:37.010Z,1028.06
2019-02-26T00:59:36.368Z,1027.99
2019-02-26T01:00:33.198Z,1028.01
2019-02-26T01:01:32.675Z,1028.04
2019-02-26T01:02:32.659Z,1027.99
2019-02-26T01:03:32.645Z,1028.01
2019-02-26T01:04:32.631Z,1028.03
2019-02-26T01:05:34.052Z,1028.08
2019-02-26T01:06:33.538Z,1027.95
2019-02-26T01:07:32.610Z,1028.00
2019-02-26T01:08:32.580Z,1027.99
2019-02-26T01:09:34.058Z,1028.01
2019-02-26T01:10:34.471Z,1028.14
2019-02-26T01:11:32.565Z,1027.95
2019-02-26T01:12:33.031Z,1027.97
2019-02-26T01:13:32.533Z,1028.12
2019-02-26T01:14:32.518Z,1028.19
2019-02-26T01:15:32.511Z,1028.26
2019-02-26T01:16:32.510Z,1028.17
2019-02-26T01:17:33.377Z,1028.35
2019-02-26T01:18:32.491Z,1028.28
2019-02-26T01:19:34.050Z,1028.11
2019-02-26T01:20:32.445Z,1028.14
2019-02-26T01:21:34.104Z,1028.06
2019-02-26T01:22:33.055Z,1027.99
2019-02-26T01:23:32.421Z,1027.88
2019-02-26T01:24:32.735Z,1027.89
2019-02-26T01:25:32.412Z,1028.05
2019-02-26T01:26:32.422Z,1028.04
2019-02-26T01:27:32.376Z,1027.99
2019-02-26T01:28:32.363Z,1027.92
2019-02-26T01:29:32.437Z,1027.80
2019-02-26T01:30:35.657Z,1027.78
2019-02-26T01:31:33.973Z,1027.77
2019-02-26T01:32:32.312Z,1027.84
2019-02-26T01:33:34.207Z,1027.80
2019-02-26T01:34:32.324Z,1027.77
2019-02-26T01:35:33.140Z,1027.74
2019-02-26T01:36:32.286Z,1027.80
2019-02-26T01:37:34.299Z,1027.71
2019-02-26T01:38:32.257Z,1027.75
2019-02-26T01:39:32.242Z,1027.78
2019-02-26T01:40:32.236Z,1027.83
2019-02-26T01:41:32.218Z,1027.86
2019-02-26T01:42:32.226Z,1027.93
2019-02-26T01:43:32.187Z,1027.89
2019-02-26T01:44:34.586Z,1027.93
2019-02-26T01:45:32.443Z,1027.83
2019-02-26T01:46:32.883Z,1027.82
2019-02-26T01:47:32.172Z,1027.88
2019-02-26T01:48:34.350Z,1027.84
2019-02-26T01:49:32.129Z,1027.74
2019-02-26T01:50:33.450Z,1027.75
2019-02-26T01:51:32.123Z,1027.69
2019-02-26T01:52:32.123Z,1027.69
2019-02-26T01:53:32.157Z,1027.70
2019-02-26T01:54:33.404Z,1027.66
2019-02-26T01:55:32.059Z,1027.69
2019-02-26T01:56:34.042Z,1027.71
2019-02-26T01:57:32.059Z,1027.76
2019-02-26T01:58:33.578Z,1027.70
2019-02-26T01:59:34.540Z,1027.71
2019-02-26T02:00:32.010Z,1027.85
2019-02-26T02:01:31.995Z,1027.73
2019-02-26T02:02:32.008Z,1027.79
2019-02-26T02:03:32.628Z,1027.77
2019-02-26T02:04:32.476Z,1027.80
2019-02-26T02:05:31.959Z,1027.63
2019-02-26T02:06:33.144Z,1027.64
2019-02-26T02:07:31.943Z,1027.60
2019-02-26T02:08:31.938Z,1027.54
2019-02-26T02:09:31.916Z,1027.61
2019-02-26T02:10:31.899Z,1027.59
2019-02-26T02:11:33.490Z,1027.59
2019-02-26T02:12:33.926Z,1027.73
2019-02-26T02:13:33.123Z,1027.68
2019-02-26T02:14:31.853Z,1027.57
2019-02-26T02:15:31.847Z,1027.46
2019-02-26T02:16:33.136Z,1027.51
2019-02-26T02:17:33.388Z,1027.59
2019-02-26T02:18:31.807Z,1027.54
2019-02-26T02:19:32.669Z,1027.60
2019-02-26T02:20:31.793Z,1027.65
2019-02-26T02:21:33.790Z,1027.66
2019-02-26T02:22:33.083Z,1027.66
2019-02-26T02:23:31.755Z,1027.67
2019-02-26T02:24:31.754Z,1027.55
2019-02-26T02:25:33.805Z,1027.55
2019-02-26T02:26:31.731Z,1027.62
2019-02-26T02:27:33.303Z,1027.47
2019-02-26T02:28:33.713Z,1027.39
2019-02-26T02:29:31.705Z,1027.38
2019-02-26T02:30:35.436Z,1027.47
2019-02-26T02:31:34.900Z,1027.45
2019-02-26T02:32:34.294Z,1027.34
2019-02-26T02:33:32.958Z,1027.43
2019-02-26T02:34:33.076Z,1027.36
2019-02-26T02:35:31.627Z,1027.54
2019-02-26T02:36:31.601Z,1027.46
2019-02-26T02:37:31.985Z,1027.46
2019-02-26T02:38:36.430Z,1027.46
2019-02-26T02:39:32.575Z,1027.38
2019-02-26T02:40:31.571Z,1027.49
2019-02-26T02:41:31.548Z,1027.54
2019-02-26T02:42:31.561Z,1027.63
2019-02-26T02:43:31.543Z,1027.56
2019-02-26T02:44:31.509Z,1027.66
2019-02-26T02:45:31.498Z,1027.51
2019-02-26T02:46:31.550Z,1027.52
2019-02-26T02:47:35.741Z,1027.57
2019-02-26T02:48:31.490Z,1027.53
2019-02-26T02:49:32.888Z,1027.64
2019-02-26T02:50:31.441Z,1027.56
2019-02-26T02:51:33.974Z,1027.56
2019-02-26T02:52:33.149Z,1027.57
2019-02-26T02:53:32.327Z,1027.62
2019-02-26T02:54:31.395Z,1027.61
2019-02-26T02:55:31.404Z,1027.63
2019-02-26T02:56:33.263Z,1027.81
2019-02-26T02:57:32.489Z,1027.80
2019-02-26T02:58:31.359Z,1027.76
2019-02-26T02:59:33.875Z,1027.68
2019-02-26T03:00:34.223Z,1027.83
2019-02-26T03:01:31.339Z,1027.72
2019-02-26T03:02:31.333Z,1027.66
2019-02-26T03:03:31.312Z,1027.59
2019-02-26T03:04:34.502Z,1027.56
2019-02-26T03:05:32.077Z,1027.62
2019-02-26T03:06:32.509Z,1027.61
2019-02-26T03:07:31.273Z,1027.55
2019-02-26T03:08:31.276Z,1027.49
2019-02-26T03:09:34.395Z,1027.60
2019-02-26T03:10:34.613Z,1027.59
2019-02-26T03:11:35.932Z,1027.50
2019-02-26T03:12:32.225Z,1027.56
2019-02-26T03:13:31.192Z,1027.52
2019-02-26T03:14:33.847Z,1027.44
2019-02-26T03:15:33.714Z,1027.47
2019-02-26T03:16:31.171Z,1027.49
2019-02-26T03:17:31.178Z,1027.61
2019-02-26T03:18:31.146Z,1027.56
2019-02-26T03:19:32.628Z,1027.49
2019-02-26T03:20:35.589Z,1027.48
2019-02-26T03:21:32.096Z,1027.56
2019-02-26T03:22:32.836Z,1027.40
2019-02-26T03:23:31.981Z,1027.41
2019-02-26T03:24:33.193Z,1027.35
2019-02-26T03:25:31.062Z,1027.41
2019-02-26T03:26:31.058Z,1027.52
2019-02-26T03:27:33.631Z,1027.55
2019-02-26T03:28:34.862Z,1027.47
2019-02-26T03:29:32.017Z,1027.47
2019-02-26T03:30:33.895Z,1027.41
2019-02-26T03:31:35.300Z,1027.40
2019-02-26T03:32:32.018Z,1027.49
2019-02-26T03:33:30.988Z,1027.54
2019-02-26T03:34:30.984Z,1027.53
2019-02-26T03:35:30.955Z,1027.54
2019-02-26T03:36:31.611Z,1027.44
2019-02-26T03:37:31.321Z,1027.44
2019-02-26T03:38:30.926Z,1027.48
2019-02-26T03:39:30.914Z,1027.45
2019-02-26T03:40:33.127Z,1027.38
2019-02-26T03:41:31.197Z,1027.39
2019-02-26T03:42:30.891Z,1027.32
2019-02-26T03:43:31.405Z,1027.29
2019-02-26T03:44:30.857Z,1027.29
2019-02-26T03:45:30.838Z,1027.33
2019-02-26T03:46:30.825Z,1027.27
2019-02-26T03:47:30.850Z,1027.27
2019-02-26T03:48:30.825Z,1027.33
2019-02-26T03:49:30.818Z,1027.50
2019-02-26T03:50:30.795Z,1027.37
2019-02-26T03:51:30.807Z,1027.54
2019-02-26T03:52:32.154Z,1027.51
2019-02-26T03:53:33.273Z,1027.54
2019-02-26T03:54:30.758Z,1027.51
2019-02-26T03:55:31.820Z,1027.55
2019-02-26T03:56:30.727Z,1027.53
2019-02-26T03:57:30.727Z,1027.51
2019-02-26T03:58:30.693Z,1027.49
2019-02-26T03:59:30.686Z,1027.59
2019-02-26T04:00:32.419Z,1027.52
2019-02-26T04:01:30.661Z,1027.56
2019-02-26T04:02:30.681Z,1027.47
2019-02-26T04:03:32.042Z,1027.48
2019-02-26T04:04:31.715Z,1027.51
2019-02-26T04:05:30.629Z,1027.40
2019-02-26T04:06:33.094Z,1027.37
2019-02-26T04:07:33.145Z,1027.52
2019-02-26T04:08:30.585Z,1027.31
2019-02-26T04:09:30.566Z,1027.34
2019-02-26T04:10:30.570Z,1027.38
2019-02-26T04:11:30.544Z,1027.29
2019-02-26T04:12:36.033Z,1027.40
2019-02-26T04:13:31.531Z,1027.52
2019-02-26T04:14:30.724Z,1027.39
2019-02-26T04:15:32.785Z,1027.54
2019-02-26T04:16:32.370Z,1027.45
2019-02-26T04:17:31.459Z,1027.28
2019-02-26T04:18:34.182Z,1027.32
2019-02-26T04:19:30.464Z,1027.43
2019-02-26T04:20:30.454Z,1027.29
2019-02-26T04:21:30.450Z,1027.27
2019-02-26T04:22:30.462Z,1027.24
2019-02-26T04:23:30.428Z,1027.30
2019-02-26T04:24:33.310Z,1027.09
2019-02-26T04:25:33.932Z,1027.17
2019-02-26T04:26:32.266Z,1027.17
2019-02-26T04:27:30.674Z,1027.19
2019-02-26T04:28:33.048Z,1027.23
2019-02-26T04:29:30.359Z,1027.16
2019-02-26T04:30:34.083Z,1027.25
2019-02-26T04:31:30.335Z,1027.19
2019-02-26T04:32:30.315Z,1027.11
2019-02-26T04:33:32.247Z,1027.06
2019-02-26T04:34:30.302Z,1027.02
2019-02-26T04:35:30.294Z,1026.98
2019-02-26T04:36:30.272Z,1027.03
2019-02-26T04:37:32.663Z,1027.06
2019-02-26T04:38:31.171Z,1027.09
2019-02-26T04:39:30.240Z,1027.14
2019-02-26T04:40:30.988Z,1027.10
2019-02-26T04:41:32.443Z,1027.14
2019-02-26T04:42:32.524Z,1027.17
2019-02-26T04:43:31.304Z,1027.13
2019-02-26T04:44:31.402Z,1027.06
2019-02-26T04:45:30.182Z,1027.11
2019-02-26T04:46:31.610Z,1027.25
2019-02-26T04:47:33.650Z,1027.21
2019-02-26T04:48:32.489Z,1027.08
2019-02-26T04:49:33.013Z,1027.11
2019-02-26T04:50:33.005Z,1027.08
2019-02-26T04:51:31.117Z,1027.02
2019-02-26T04:52:32.373Z,1027.05
2019-02-26T04:53:31.363Z,1027.07
2019-02-26T04:54:31.028Z,1027.03
2019-02-26T04:55:35.016Z,1027.03
2019-02-26T04:56:33.529Z,1026.98
2019-02-26T04:57:30.050Z,1027.01
2019-02-26T04:58:30.037Z,1027.02
2019-02-26T04:59:32.270Z,1026.97
2019-02-26T05:00:32.838Z,1027.01
2019-02-26T05:01:30.992Z,1027.06
2019-02-26T05:02:29.996Z,1027.03
2019-02-26T05:03:29.995Z,1027.00
2019-02-26T05:04:30.634Z,1027.00
2019-02-26T05:05:32.024Z,1027.04
2019-02-26T05:06:29.953Z,1027.06
2019-02-26T05:07:29.928Z,1027.16
2019-02-26T05:08:32.114Z,1027.15
2019-02-26T05:09:32.175Z,1027.19
2019-02-26T05:10:31.936Z,1027.12
2019-02-26T05:11:32.710Z,1027.05
2019-02-26T05:12:33.887Z,1027.16
2019-02-26T05:13:32.165Z,1027.24
2019-02-26T05:14:29.851Z,1027.17
2019-02-26T05:15:31.127Z,1027.17
2019-02-26T05:16:32.823Z,1027.18
2019-02-26T05:17:32.633Z,1027.11
2019-02-26T05:18:32.632Z,1027.23
2019-02-26T05:19:29.801Z,1027.20
2019-02-26T05:20:31.457Z,1027.09
2019-02-26T05:21:30.565Z,1027.10
2019-02-26T05:22:30.878Z,1027.13
2019-02-26T05:23:31.722Z,1027.04
2019-02-26T05:24:29.761Z,1026.98
2019-02-26T05:25:31.546Z,1027.02
2019-02-26T05:26:30.299Z,1026.98
2019-02-26T05:27:29.713Z,1027.01
2019-02-26T05:28:32.697Z,1026.88
2019-02-26T05:29:29.680Z,1026.94
2019-02-26T05:30:29.669Z,1026.95
2019-02-26T05:31:32.326Z,1026.88
2019-02-26T05:32:32.337Z,1026.94
2019-02-26T05:33:30.958Z,1026.87
2019-02-26T05:34:29.620Z,1026.85
2019-02-26T05:35:29.622Z,1026.90
2019-02-26T05:36:31.717Z,1026.88
2019-02-26T05:37:31.753Z,1026.74
2019-02-26T05:38:30.605Z,1026.78
2019-02-26T05:39:29.587Z,1026.79
2019-02-26T05:40:29.556Z,1026.93
2019-02-26T05:41:29.549Z,1026.90
2019-02-26T05:42:29.530Z,1026.97
2019-02-26T05:43:31.484Z,1026.93
2019-02-26T05:44:29.509Z,1026.79
2019-02-26T05:45:32.228Z,1026.81
2019-02-26T05:46:30.494Z,1026.94
2019-02-26T05:47:29.472Z,1026.90
2019-02-26T05:48:29.491Z,1026.90
2019-02-26T05:49:31.551Z,1027.03
2019-02-26T05:50:30.257Z,1027.02
2019-02-26T05:51:32.014Z,1027.00
2019-02-26T05:52:30.650Z,1027.01
2019-02-26T05:53:29.444Z,1027.10
2019-02-26T05:54:29.410Z,1027.13
2019-02-26T05:55:29.380Z,1027.14
2019-02-26T05:56:29.386Z,1027.16
2019-02-26T05:57:32.586Z,1027.34
2019-02-26T05:58:29.387Z,1027.12
2019-02-26T05:59:29.345Z,1027.31
2019-02-26T06:00:33.110Z,1027.28
2019-02-26T06:01:29.324Z,1027.20
2019-02-26T06:02:29.320Z,1027.24
2019-02-26T06:03:29.350Z,1027.26
2019-02-26T06:04:29.288Z,1027.28
2019-02-26T06:05:29.278Z,1027.45
2019-02-26T06:06:29.264Z,1027.27
2019-02-26T06:07:31.345Z,1027.41
2019-02-26T06:08:32.683Z,1027.33
2019-02-26T06:09:32.946Z,1027.28
2019-02-26T06:10:30.473Z,1027.30
2019-02-26T06:11:33.227Z,1027.24
2019-02-26T06:12:30.499Z,1027.27
2019-02-26T06:13:31.575Z,1027.28
2019-02-26T06:14:31.289Z,1027.27
2019-02-26T06:15:31.381Z,1027.27
2019-02-26T06:16:31.371Z,1027.22
2019-02-26T06:17:29.141Z,1027.16
2019-02-26T06:18:29.137Z,1027.28
2019-02-26T06:19:30.178Z,1027.24
2019-02-26T06:20:31.260Z,1027.27
2019-02-26T06:21:29.110Z,1027.29
2019-02-26T06:22:31.581Z,1027.26
2019-02-26T06:23:31.757Z,1027.21
2019-02-26T06:24:29.716Z,1027.10
2019-02-26T06:25:29.061Z,1027.11
2019-02-26T06:26:32.671Z,1027.08
2019-02-26T06:27:29.051Z,1027.14
2019-02-26T06:28:29.038Z,1027.06
2019-02-26T06:29:30.039Z,1027.15
2019-02-26T06:30:29.049Z,1027.14
2019-02-26T06:31:28.993Z,1027.18
2019-02-26T06:32:32.158Z,1027.13
2019-02-26T06:33:31.701Z,1027.13
2019-02-26T06:34:28.987Z,1027.16
2019-02-26T06:35:28.957Z,1027.14
2019-02-26T06:36:30.452Z,1027.24
2019-02-26T06:37:30.808Z,1027.10
2019-02-26T06:38:32.187Z,1027.08
2019-02-26T06:39:29.955Z,1027.08
2019-02-26T06:40:32.387Z,1027.08
2019-02-26T06:41:29.887Z,1027.00
2019-02-26T06:42:30.862Z,1027.01
2019-02-26T06:43:30.820Z,1027.00
2019-02-26T06:44:28.854Z,1027.08
2019-02-26T06:45:28.835Z,1027.05
2019-02-26T06:46:29.448Z,1027.00
2019-02-26T06:47:31.010Z,1027.10
2019-02-26T06:48:29.828Z,1027.25
2019-02-26T06:49:29.120Z,1027.06
2019-02-26T06:50:28.777Z,1027.04
2019-02-26T06:51:30.637Z,1027.05
2019-02-26T06:52:29.895Z,1026.98
2019-02-26T06:53:28.749Z,1027.04
2019-02-26T06:54:31.319Z,1027.11
2019-02-26T06:55:28.725Z,1027.17
2019-02-26T06:56:30.153Z,1027.15
2019-02-26T06:57:28.712Z,1027.09
2019-02-26T06:58:28.688Z,1027.10
2019-02-26T06:59:29.564Z,1027.02
2019-02-26T07:00:29.365Z,1027.19
2019-02-26T07:01:30.434Z,1027.14
2019-02-26T07:02:29.148Z,1027.21
2019-02-26T07:03:28.636Z,1027.13
2019-02-26T07:04:30.110Z,1027.10
2019-02-26T07:05:28.612Z,1027.21
2019-02-26T07:06:30.192Z,1027.23
2019-02-26T07:07:28.592Z,1027.13
2019-02-26T07:08:30.822Z,1027.22
2019-02-26T07:09:28.587Z,1027.22
2019-02-26T07:10:31.168Z,1027.18
2019-02-26T07:11:30.519Z,1027.13
2019-02-26T07:12:28.600Z,1027.15
2019-02-26T07:13:28.538Z,1027.20
2019-02-26T07:14:30.238Z,1027.30
2019-02-26T07:15:29.345Z,1027.26
2019-02-26T07:16:28.498Z,1027.26
2019-02-26T07:17:31.627Z,1027.31
2019-02-26T07:18:29.464Z,1027.09
2019-02-26T07:19:30.731Z,1027.29
2019-02-26T07:20:34.122Z,1027.26
2019-02-26T07:21:29.430Z,1027.17
2019-02-26T07:22:28.423Z,1027.11
2019-02-26T07:23:29.820Z,1027.21
2019-02-26T07:24:28.418Z,1027.25
2019-02-26T07:25:28.397Z,1027.25
2019-02-26T07:26:28.374Z,1027.33
2019-02-26T07:27:28.870Z,1027.30
2019-02-26T07:28:28.370Z,1027.21
2019-02-26T07:29:30.781Z,1027.13
2019-02-26T07:30:28.325Z,1027.16
2019-02-26T07:31:28.745Z,1027.16
2019-02-26T07:32:28.318Z,1027.14
2019-02-26T07:33:29.832Z,1027.06
2019-02-26T07:34:28.338Z,1027.10
2019-02-26T07:35:30.295Z,1027.14
2019-02-26T07:36:28.267Z,1027.16
2019-02-26T07:37:29.236Z,1027.19
2019-02-26T07:38:28.245Z,1027.20
2019-02-26T07:39:28.252Z,1027.26
2019-02-26T07:40:30.398Z,1027.26
2019-02-26T07:41:30.308Z,1027.35
2019-02-26T07:42:28.206Z,1027.37
2019-02-26T07:43:28.191Z,1027.36
2019-02-26T07:44:28.467Z,1027.37
2019-02-26T07:45:29.824Z,1027.35
2019-02-26T07:46:28.152Z,1027.31
2019-02-26T07:47:29.481Z,1027.39
2019-02-26T07:48:29.481Z,1027.32
2019-02-26T07:49:28.138Z,1027.45
2019-02-26T07:50:31.407Z,1027.42
2019-02-26T07:51:29.371Z,1027.41
2019-02-26T07:52:28.818Z,1027.53
2019-02-26T07:53:28.083Z,1027.66
2019-02-26T07:54:28.959Z,1027.62
2019-02-26T07:55:30.227Z,1027.54
2019-02-26T07:56:30.131Z,1027.63
2019-02-26T07:57:28.031Z,1027.56
2019-02-26T07:58:28.019Z,1027.69
2019-02-26T07:59:32.017Z,1027.58
2019-02-26T08:00:28.007Z,1027.52
2019-02-26T08:01:28.040Z,1027.49
2019-02-26T08:02:30.146Z,1027.55
2019-02-26T08:03:29.453Z,1027.49
2019-02-26T08:04:27.961Z,1027.48
2019-02-26T08:05:28.932Z,1027.46
2019-02-26T08:06:29.367Z,1027.45
2019-02-26T08:07:28.498Z,1027.48
2019-02-26T08:08:27.915Z,1027.43
2019-02-26T08:09:27.920Z,1027.40
2019-02-26T08:10:27.887Z,1027.64
2019-02-26T08:11:27.869Z,1027.57
2019-02-26T08:12:27.867Z,1027.60
2019-02-26T08:13:29.706Z,1027.50
2019-02-26T08:14:27.877Z,1027.59
2019-02-26T08:15:30.182Z,1027.51
2019-02-26T08:16:30.027Z,1027.48
2019-02-26T08:17:27.814Z,1027.51
2019-02-26T08:18:27.805Z,1027.50
2019-02-26T08:19:29.639Z,1027.52
2019-02-26T08:20:28.450Z,1027.65
2019-02-26T08:21:29.597Z,1027.58
2019-02-26T08:22:30.161Z,1027.53
2019-02-26T08:23:27.744Z,1027.68
2019-02-26T08:24:27.753Z,1027.53
2019-02-26T08:25:27.722Z,1027.66
2019-02-26T08:26:29.174Z,1027.72
2019-02-26T08:27:28.639Z,1027.72
2019-02-26T08:28:27.685Z,1027.71
2019-02-26T08:29:29.404Z,1027.78
2019-02-26T08:30:27.662Z,1027.62
2019-02-26T08:31:27.996Z,1027.67
2019-02-26T08:32:28.621Z,1027.67
2019-02-26T08:33:27.620Z,1027.66
2019-02-26T08:34:27.660Z,1027.59
2019-02-26T08:35:27.604Z,1027.60
2019-02-26T08:36:27.598Z,1027.57
2019-02-26T08:37:27.605Z,1027.56
2019-02-26T08:38:30.055Z,1027.53
2019-02-26T08:39:27.576Z,1027.66
2019-02-26T08:40:27.566Z,1027.51
2019-02-26T08:41:27.538Z,1027.41
2019-02-26T08:42:27.541Z,1027.47
2019-02-26T08:43:27.520Z,1027.37
2019-02-26T08:44:28.187Z,1027.53
2019-02-26T08:45:27.517Z,1027.52
2019-02-26T08:46:27.500Z,1027.57
2019-02-26T08:47:27.478Z,1027.45
2019-02-26T08:48:27.478Z,1027.46
2019-02-26T08:49:27.454Z,1027.44
2019-02-26T08:50:30.655Z,1027.40
2019-02-26T08:51:28.433Z,1027.34
2019-02-26T08:52:29.269Z,1027.43
2019-02-26T08:53:28.971Z,1027.36
2019-02-26T08:54:30.249Z,1027.40
2019-02-26T08:55:27.406Z,1027.35
2019-02-26T08:56:28.284Z,1027.45
2019-02-26T08:57:27.355Z,1027.38
2019-02-26T08:58:28.271Z,1027.40
2019-02-26T08:59:27.360Z,1027.44
2019-02-26T09:00:27.351Z,1027.34
2019-02-26T09:01:27.329Z,1027.35
2019-02-26T09:02:27.303Z,1027.39
2019-02-26T09:03:27.300Z,1027.40
2019-02-26T09:04:27.289Z,1027.35
2019-02-26T09:05:29.222Z,1027.32
2019-02-26T09:06:27.270Z,1027.33
2019-02-26T09:07:27.259Z,1027.21
2019-02-26T09:08:27.239Z,1027.28
2019-02-26T09:09:27.794Z,1027.28
2019-02-26T09:10:27.223Z,1027.39
2019-02-26T09:11:28.758Z,1027.28
2019-02-26T09:12:27.343Z,1027.51
2019-02-26T09:13:27.182Z,1027.41
2019-02-26T09:14:27.784Z,1027.48
2019-02-26T09:15:29.022Z,1027.34
2019-02-26T09:16:28.321Z,1027.35
2019-02-26T09:17:29.917Z,1027.39
2019-02-26T09:18:30.708Z,1027.43
2019-02-26T09:19:28.490Z,1027.50
2019-02-26T09:20:27.130Z,1027.63
2019-02-26T09:21:27.090Z,1027.67
2019-02-26T09:22:28.489Z,1027.64
2019-02-26T09:23:28.778Z,1027.48
2019-02-26T09:24:27.077Z,1027.61
2019-02-26T09:25:28.668Z,1027.57
2019-02-26T09:26:27.046Z,1027.57
2019-02-26T09:27:27.662Z,1027.54
2019-02-26T09:28:27.554Z,1027.55
2019-02-26T09:29:27.012Z,1027.54
2019-02-26T09:30:28.175Z,1027.52
2019-02-26T09:31:26.985Z,1027.49
2019-02-26T09:32:28.294Z,1027.49
2019-02-26T09:33:30.543Z,1027.74
2019-02-26T09:34:29.312Z,1027.70
2019-02-26T09:35:30.486Z,1027.69
2019-02-26T09:36:29.225Z,1027.70
2019-02-26T09:37:26.931Z,1027.72
2019-02-26T09:38:26.891Z,1027.82
2019-02-26T09:39:27.568Z,1027.81
2019-02-26T09:40:29.256Z,1027.87
2019-02-26T09:41:26.891Z,1027.90
2019-02-26T09:42:27.900Z,1027.87
2019-02-26T09:43:26.865Z,1027.90
2019-02-26T09:44:28.559Z,1027.93
2019-02-26T09:45:29.545Z,1028.01
2019-02-26T09:46:26.815Z,1027.98
2019-02-26T09:47:28.617Z,1027.91
2019-02-26T09:48:26.788Z,1027.95
2019-02-26T09:49:28.492Z,1027.98
2019-02-26T09:50:26.782Z,1028.00
2019-02-26T09:51:28.363Z,1028.00
2019-02-26T09:52:27.690Z,1028.10
2019-02-26T09:53:26.734Z,1028.18
2019-02-26T09:54:26.732Z,1028.10
2019-02-26T09:55:26.724Z,1028.18
2019-02-26T09:56:26.706Z,1028.16
2019-02-26T09:57:28.286Z,1028.15
2019-02-26T09:58:26.683Z,1028.01
2019-02-26T09:59:28.931Z,1028.04
2019-02-26T10:00:29.331Z,1028.11
2019-02-26T10:01:26.652Z,1028.23
2019-02-26T10:02:28.633Z,1028.23
2019-02-26T10:03:27.272Z,1028.17
2019-02-26T10:04:28.779Z,1028.10
2019-02-26T10:05:26.790Z,1028.13
2019-02-26T10:06:26.588Z,1028.04
2019-02-26T10:07:28.393Z,1028.18
2019-02-26T10:08:27.962Z,1028.23
2019-02-26T10:09:26.582Z,1028.10
2019-02-26T10:10:29.181Z,1028.11
2019-02-26T10:11:27.976Z,1028.10
2019-02-26T10:12:28.051Z,1028.02
2019-02-26T10:13:27.733Z,1028.03
2019-02-26T10:14:28.689Z,1028.07
2019-02-26T10:15:26.532Z,1028.07
2019-02-26T10:16:28.231Z,1028.11
2019-02-26T10:17:26.488Z,1028.12
2019-02-26T10:18:27.959Z,1028.18
2019-02-26T10:19:26.457Z,1028.05
2019-02-26T10:20:29.720Z,1027.95
2019-02-26T10:21:27.455Z,1027.99
2019-02-26T10:22:28.654Z,1028.02
2019-02-26T10:23:28.515Z,1028.03
2019-02-26T10:24:27.307Z,1027.99
2019-02-26T10:25:28.667Z,1028.09
2019-02-26T10:26:28.682Z,1028.08
2019-02-26T10:27:28.468Z,1028.14
2019-02-26T10:28:26.372Z,1028.11
2019-02-26T10:29:26.334Z,1028.17
2019-02-26T10:30:28.314Z,1028.15
2019-02-26T10:31:27.602Z,1028.14
2019-02-26T10:32:26.945Z,1028.23
2019-02-26T10:33:26.328Z,1028.10
2019-02-26T10:34:30.172Z,1028.17
2019-02-26T10:35:33.144Z,1028.18
2019-02-26T10:36:30.349Z,1028.33
2019-02-26T10:37:27.244Z,1028.31
2019-02-26T10:38:29.609Z,1028.25
2019-02-26T10:39:28.322Z,1028.37
2019-02-26T10:40:34.565Z,1028.23
2019-02-26T10:41:27.210Z,1028.18
2019-02-26T10:42:26.191Z,1028.18
2019-02-26T10:43:26.191Z,1028.27
2019-02-26T10:44:26.174Z,1028.16
2019-02-26T10:45:26.161Z,1028.25
2019-02-26T10:46:26.191Z,1028.19
2019-02-26T10:47:27.509Z,1028.17
2019-02-26T10:48:27.925Z,1028.21
2019-02-26T10:49:26.110Z,1028.05
2019-02-26T10:50:31.104Z,1028.07
2019-02-26T10:51:27.262Z,1028.10
2019-02-26T10:52:28.259Z,1028.11
2019-02-26T10:53:26.073Z,1028.15
2019-02-26T10:54:28.645Z,1028.15
2019-02-26T10:55:31.376Z,1028.15
2019-02-26T10:56:28.720Z,1028.13
2019-02-26T10:57:28.511Z,1028.13
2019-02-26T10:58:26.023Z,1028.05
2019-02-26T10:59:26.011Z,1028.04
2019-02-26T11:00:30.132Z,1028.08
2019-02-26T11:01:28.735Z,1028.08
2019-02-26T11:02:27.906Z,1028.16
2019-02-26T11:03:25.987Z,1028.10
2019-02-26T11:04:34.384Z,1028.13
2019-02-26T11:05:26.940Z,1028.12
2019-02-26T11:06:25.949Z,1028.12
2019-02-26T11:07:26.455Z,1028.14
2019-02-26T11:08:28.951Z,1028.11
2019-02-26T11:09:29.284Z,1028.04
2019-02-26T11:10:25.885Z,1028.17
2019-02-26T11:11:25.894Z,1027.94
2019-02-26T11:12:28.535Z,1028.05
2019-02-26T11:13:25.961Z,1028.09
2019-02-26T11:14:25.845Z,1028.06
2019-02-26T11:15:26.997Z,1027.99
2019-02-26T11:16:27.957Z,1027.95
2019-02-26T11:17:26.313Z,1028.05
2019-02-26T11:18:25.794Z,1028.03
2019-02-26T11:19:27.319Z,1028.05
2019-02-26T11:20:28.281Z,1027.89
2019-02-26T11:21:25.802Z,1027.82
2019-02-26T11:22:27.556Z,1027.76
2019-02-26T11:23:30.784Z,1027.74
2019-02-26T11:24:30.263Z,1027.73
2019-02-26T11:25:27.388Z,1027.65
2019-02-26T11:26:25.728Z,1027.65
2019-02-26T11:27:25.702Z,1027.66
2019-02-26T11:28:29.801Z,1027.65
2019-02-26T11:29:28.643Z,1027.68
2019-02-26T11:30:28.687Z,1027.47
2019-02-26T11:31:25.678Z,1027.60
2019-02-26T11:32:27.824Z,1027.48
2019-02-26T11:33:25.629Z,1027.58
2019-02-26T11:34:27.850Z,1027.56
2019-02-26T11:35:27.353Z,1027.46
2019-02-26T11:36:25.621Z,1027.46
2019-02-26T11:37:27.172Z,1027.35
2019-02-26T11:38:25.581Z,1027.38
2019-02-26T11:39:25.569Z,1027.44
2019-02-26T11:40:28.079Z,1027.44
2019-02-26T11:41:26.354Z,1027.49
2019-02-26T11:42:26.067Z,1027.49
2019-02-26T11:43:26.992Z,1027.56
2019-02-26T11:44:27.611Z,1027.57
2019-02-26T11:45:25.503Z,1027.47
2019-02-26T11:46:27.207Z,1027.48
2019-02-26T11:47:25.503Z,1027.53
2019-02-26T11:48:25.931Z,1027.56
2019-02-26T11:49:25.471Z,1027.58
2019-02-26T11:50:28.081Z,1027.58
2019-02-26T11:51:25.458Z,1027.76
2019-02-26T11:52:25.415Z,1027.73
2019-02-26T11:53:29.625Z,1027.74
2019-02-26T11:54:25.429Z,1027.72
2019-02-26T11:55:26.856Z,1027.65
2019-02-26T11:56:25.874Z,1027.51
2019-02-26T11:57:25.373Z,1027.57
2019-02-26T11:58:26.954Z,1027.47
2019-02-26T11:59:25.343Z,1027.47
2019-02-26T12:00:25.791Z,1027.54
2019-02-26T12:01:27.002Z,1027.51
2019-02-26T12:02:31.350Z,1027.55
2019-02-26T12:03:29.189Z,1027.47
2019-02-26T12:04:25.285Z,1027.45
2019-02-26T12:05:31.407Z,1027.51